sensor_id;sensor_type;location;lat;lon;timestamp;temperature;humidity
29539;DHT22;16482;51.046;4.498;2023-08-06T00:01:37;24.80;52.60
29539;DHT22;16482;51.046;4.498;2023-08-06T00:04:12;24.70;52.50
29539;DHT22;16482;51.046;4.498;2023-08-06T00:06:48;24.70;52.50
29539;DHT22;16482;51.046;4.498;2023-08-06T00:09:14;24.80;52.60
29539;DHT22;16482;51.046;4.498;2023-08-06T00:11:40;24.70;52.60
29539;DHT22;16482;51.046;4.498;2023-08-06T00:14:17;24.80;52.60
29539;DHT22;16482;51.046;4.498;2023-08-06T00:16:44;24.70;52.60
29539;DHT22;16482;51.046;4.498;2023-08-06T00:19:11;24.70;52.60
29539;DHT22;16482;51.046;4.498;2023-08-06T00:21:36;24.70;52.60
29539;DHT22;16482;51.046;4.498;2023-08-06T00:24:05;24.70;52.60
29539;DHT22;16482;51.046;4.498;2023-08-06T00:26:36;24.80;52.60
29539;DHT22;16482;51.046;4.498;2023-08-06T00:29:09;24.70;53.00
29539;DHT22;16482;51.046;4.498;2023-08-06T00:31:35;24.80;52.70
29539;DHT22;16482;51.046;4.498;2023-08-06T00:34:04;24.70;52.70
29539;DHT22;16482;51.046;4.498;2023-08-06T00:36:33;24.70;52.70
29539;DHT22;16482;51.046;4.498;2023-08-06T00:39:04;24.70;52.70
29539;DHT22;16482;51.046;4.498;2023-08-06T00:41:39;24.80;52.80
29539;DHT22;16482;51.046;4.498;2023-08-06T00:44:14;24.70;52.70
29539;DHT22;16482;51.046;4.498;2023-08-06T00:46:43;24.80;52.80
29539;DHT22;16482;51.046;4.498;2023-08-06T00:49:12;24.70;52.80
29539;DHT22;16482;51.046;4.498;2023-08-06T00:51:38;24.70;52.70
29539;DHT22;16482;51.046;4.498;2023-08-06T00:54:04;24.70;52.80
29539;DHT22;16482;51.046;4.498;2023-08-06T00:56:34;24.70;52.90
29539;DHT22;16482;51.046;4.498;2023-08-06T00:59:06;24.70;52.70
29539;DHT22;16482;51.046;4.498;2023-08-06T01:01:35;24.70;52.80
29539;DHT22;16482;51.046;4.498;2023-08-06T01:04:04;24.70;52.80
29539;DHT22;16482;51.046;4.498;2023-08-06T01:06:48;24.70;52.80
29539;DHT22;16482;51.046;4.498;2023-08-06T01:09:28;24.70;52.70
29539;DHT22;16482;51.046;4.498;2023-08-06T01:17:26;24.70;52.80
29539;DHT22;16482;51.046;4.498;2023-08-06T01:19:54;24.70;52.90
29539;DHT22;16482;51.046;4.498;2023-08-06T01:22:20;24.70;52.90
29539;DHT22;16482;51.046;4.498;2023-08-06T01:24:50;24.70;52.90
29539;DHT22;16482;51.046;4.498;2023-08-06T01:28:04;24.70;52.80
29539;DHT22;16482;51.046;4.498;2023-08-06T01:30:27;24.70;52.80
29539;DHT22;16482;51.046;4.498;2023-08-06T01:32:58;24.70;52.90
29539;DHT22;16482;51.046;4.498;2023-08-06T01:35:26;24.70;52.90
29539;DHT22;16482;51.046;4.498;2023-08-06T01:37:52;24.70;52.90
29539;DHT22;16482;51.046;4.498;2023-08-06T01:40:20;24.70;52.90
29539;DHT22;16482;51.046;4.498;2023-08-06T01:42:55;24.70;52.90
29539;DHT22;16482;51.046;4.498;2023-08-06T01:45:31;24.70;53.00
29539;DHT22;16482;51.046;4.498;2023-08-06T01:47:57;24.60;52.90
29539;DHT22;16482;51.046;4.498;2023-08-06T01:50:23;24.60;52.90
29539;DHT22;16482;51.046;4.498;2023-08-06T01:52:49;24.60;52.90
29539;DHT22;16482;51.046;4.498;2023-08-06T01:55:15;24.70;52.90
29539;DHT22;16482;51.046;4.498;2023-08-06T01:57:43;24.70;53.00
29539;DHT22;16482;51.046;4.498;2023-08-06T02:00:18;24.70;52.90
29539;DHT22;16482;51.046;4.498;2023-08-06T02:02:44;24.60;52.90
29539;DHT22;16482;51.046;4.498;2023-08-06T02:05:10;24.60;53.00
29539;DHT22;16482;51.046;4.498;2023-08-06T02:07:39;24.60;53.20
29539;DHT22;16482;51.046;4.498;2023-08-06T02:10:08;24.60;53.30
29539;DHT22;16482;51.046;4.498;2023-08-06T02:12:36;24.60;53.10
29539;DHT22;16482;51.046;4.498;2023-08-06T02:15:06;24.60;53.00
29539;DHT22;16482;51.046;4.498;2023-08-06T02:17:32;24.60;53.00
29539;DHT22;16482;51.046;4.498;2023-08-06T02:19:58;24.60;53.00
29539;DHT22;16482;51.046;4.498;2023-08-06T02:22:27;24.60;53.00
29539;DHT22;16482;51.046;4.498;2023-08-06T02:24:55;24.60;53.00
29539;DHT22;16482;51.046;4.498;2023-08-06T02:27:22;24.60;53.00
29539;DHT22;16482;51.046;4.498;2023-08-06T02:29:55;24.60;53.00
29539;DHT22;16482;51.046;4.498;2023-08-06T02:32:26;24.60;52.90
29539;DHT22;16482;51.046;4.498;2023-08-06T02:34:57;24.60;53.00
29539;DHT22;16482;51.046;4.498;2023-08-06T02:37:26;24.60;53.00
29539;DHT22;16482;51.046;4.498;2023-08-06T02:39:55;24.60;53.00
29539;DHT22;16482;51.046;4.498;2023-08-06T02:42:21;24.60;53.00
29539;DHT22;16482;51.046;4.498;2023-08-06T02:44:49;24.60;53.00
29539;DHT22;16482;51.046;4.498;2023-08-06T02:47:22;24.70;53.00
29539;DHT22;16482;51.046;4.498;2023-08-06T02:49:51;24.60;53.00
29539;DHT22;16482;51.046;4.498;2023-08-06T02:52:27;24.70;53.10
29539;DHT22;16482;51.046;4.498;2023-08-06T02:54:55;24.70;53.00
29539;DHT22;16482;51.046;4.498;2023-08-06T02:57:27;24.60;53.00
29539;DHT22;16482;51.046;4.498;2023-08-06T03:00:00;24.60;53.00
29539;DHT22;16482;51.046;4.498;2023-08-06T03:02:26;24.60;53.00
29539;DHT22;16482;51.046;4.498;2023-08-06T03:04:52;24.70;53.10
29539;DHT22;16482;51.046;4.498;2023-08-06T03:07:18;24.60;53.10
29539;DHT22;16482;51.046;4.498;2023-08-06T03:09:44;24.60;53.10
29539;DHT22;16482;51.046;4.498;2023-08-06T03:12:10;24.60;53.10
29539;DHT22;16482;51.046;4.498;2023-08-06T03:14:36;24.60;53.10
29539;DHT22;16482;51.046;4.498;2023-08-06T03:17:02;24.60;53.10
29539;DHT22;16482;51.046;4.498;2023-08-06T03:19:38;24.60;53.00
29539;DHT22;16482;51.046;4.498;2023-08-06T03:22:04;24.60;53.10
29539;DHT22;16482;51.046;4.498;2023-08-06T03:24:39;24.60;53.10
29539;DHT22;16482;51.046;4.498;2023-08-06T03:27:05;24.60;53.10
29539;DHT22;16482;51.046;4.498;2023-08-06T03:29:31;24.50;53.20
29539;DHT22;16482;51.046;4.498;2023-08-06T03:31:57;24.50;53.40
29539;DHT22;16482;51.046;4.498;2023-08-06T03:34:23;24.60;53.40
29539;DHT22;16482;51.046;4.498;2023-08-06T03:36:49;24.60;53.30
29539;DHT22;16482;51.046;4.498;2023-08-06T03:39:18;24.60;53.30
29539;DHT22;16482;51.046;4.498;2023-08-06T03:41:44;24.60;53.20
29539;DHT22;16482;51.046;4.498;2023-08-06T03:44:10;24.60;53.30
29539;DHT22;16482;51.046;4.498;2023-08-06T03:46:36;24.60;53.20
29539;DHT22;16482;51.046;4.498;2023-08-06T03:49:07;24.60;53.20
29539;DHT22;16482;51.046;4.498;2023-08-06T03:51:36;24.60;53.30
29539;DHT22;16482;51.046;4.498;2023-08-06T03:54:12;24.60;53.30
29539;DHT22;16482;51.046;4.498;2023-08-06T03:56:45;24.60;53.10
29539;DHT22;16482;51.046;4.498;2023-08-06T03:59:11;24.60;53.30
29539;DHT22;16482;51.046;4.498;2023-08-06T04:01:40;24.60;53.20
29539;DHT22;16482;51.046;4.498;2023-08-06T04:04:06;24.60;53.20
29539;DHT22;16482;51.046;4.498;2023-08-06T04:06:32;24.60;53.20
29539;DHT22;16482;51.046;4.498;2023-08-06T04:09:06;24.60;53.20
29539;DHT22;16482;51.046;4.498;2023-08-06T04:11:41;24.60;53.30
29539;DHT22;16482;51.046;4.498;2023-08-06T04:14:08;24.60;53.20
29539;DHT22;16482;51.046;4.498;2023-08-06T04:16:41;24.60;53.30
29539;DHT22;16482;51.046;4.498;2023-08-06T04:19:14;24.60;53.30
29539;DHT22;16482;51.046;4.498;2023-08-06T04:21:40;24.60;53.20
29539;DHT22;16482;51.046;4.498;2023-08-06T04:24:06;24.60;53.30
29539;DHT22;16482;51.046;4.498;2023-08-06T04:26:32;24.60;53.30
29539;DHT22;16482;51.046;4.498;2023-08-06T04:29:04;24.60;53.30
29539;DHT22;16482;51.046;4.498;2023-08-06T04:31:29;24.60;53.20
29539;DHT22;16482;51.046;4.498;2023-08-06T04:33:55;24.60;53.20
29539;DHT22;16482;51.046;4.498;2023-08-06T04:36:21;24.60;53.30
29539;DHT22;16482;51.046;4.498;2023-08-06T04:38:50;24.60;53.30
29539;DHT22;16482;51.046;4.498;2023-08-06T04:41:16;24.70;53.30
29539;DHT22;16482;51.046;4.498;2023-08-06T04:43:53;24.60;53.30
29539;DHT22;16482;51.046;4.498;2023-08-06T04:46:29;24.60;53.30
29539;DHT22;16482;51.046;4.498;2023-08-06T04:48:55;24.60;53.40
29539;DHT22;16482;51.046;4.498;2023-08-06T04:51:21;24.60;53.20
29539;DHT22;16482;51.046;4.498;2023-08-06T04:53:47;24.60;53.10
29539;DHT22;16482;51.046;4.498;2023-08-06T04:56:16;24.60;53.10
29539;DHT22;16482;51.046;4.498;2023-08-06T04:58:42;24.60;53.10
29539;DHT22;16482;51.046;4.498;2023-08-06T05:01:08;24.60;53.10
29539;DHT22;16482;51.046;4.498;2023-08-06T05:03:34;24.60;53.10
29539;DHT22;16482;51.046;4.498;2023-08-06T05:06:00;24.60;53.00
29539;DHT22;16482;51.046;4.498;2023-08-06T05:08:25;24.60;53.10
29539;DHT22;16482;51.046;4.498;2023-08-06T05:10:51;24.60;53.00
29539;DHT22;16482;51.046;4.498;2023-08-06T05:13:20;24.60;52.90
29539;DHT22;16482;51.046;4.498;2023-08-06T05:15:46;24.60;52.90
29539;DHT22;16482;51.046;4.498;2023-08-06T05:18:12;24.60;52.90
29539;DHT22;16482;51.046;4.498;2023-08-06T05:20:49;24.60;52.80
29539;DHT22;16482;51.046;4.498;2023-08-06T05:23:24;24.60;52.70
29539;DHT22;16482;51.046;4.498;2023-08-06T05:25:50;24.60;52.80
29539;DHT22;16482;51.046;4.498;2023-08-06T05:28:16;24.60;52.70
29539;DHT22;16482;51.046;4.498;2023-08-06T05:30:42;24.60;52.70
29539;DHT22;16482;51.046;4.498;2023-08-06T05:33:18;24.60;52.70
29539;DHT22;16482;51.046;4.498;2023-08-06T05:35:44;24.50;52.60
29539;DHT22;16482;51.046;4.498;2023-08-06T05:38:19;24.60;52.70
29539;DHT22;16482;51.046;4.498;2023-08-06T05:40:54;24.50;52.60
29539;DHT22;16482;51.046;4.498;2023-08-06T05:43:20;24.50;52.50
29539;DHT22;16482;51.046;4.498;2023-08-06T05:45:56;24.50;52.50
29539;DHT22;16482;51.046;4.498;2023-08-06T05:48:29;24.60;52.50
29539;DHT22;16482;51.046;4.498;2023-08-06T05:50:55;24.50;52.50
29539;DHT22;16482;51.046;4.498;2023-08-06T05:53:21;24.50;52.50
29539;DHT22;16482;51.046;4.498;2023-08-06T05:55:50;24.60;52.40
29539;DHT22;16482;51.046;4.498;2023-08-06T05:58:16;24.50;52.40
29539;DHT22;16482;51.046;4.498;2023-08-06T06:00:48;24.60;52.50
29539;DHT22;16482;51.046;4.498;2023-08-06T06:03:23;24.50;52.40
29539;DHT22;16482;51.046;4.498;2023-08-06T06:05:49;24.50;52.50
29539;DHT22;16482;51.046;4.498;2023-08-06T06:08:15;24.50;52.30
29539;DHT22;16482;51.046;4.498;2023-08-06T06:10:41;24.50;52.40
29539;DHT22;16482;51.046;4.498;2023-08-06T06:13:10;24.60;52.40
29539;DHT22;16482;51.046;4.498;2023-08-06T06:15:36;24.60;52.40
29539;DHT22;16482;51.046;4.498;2023-08-06T06:18:16;24.50;52.30
29539;DHT22;16482;51.046;4.498;2023-08-06T06:20:49;24.50;52.40
29539;DHT22;16482;51.046;4.498;2023-08-06T06:23:18;24.50;52.30
29539;DHT22;16482;51.046;4.498;2023-08-06T06:25:47;24.60;52.30
29539;DHT22;16482;51.046;4.498;2023-08-06T06:28:17;24.50;52.20
29539;DHT22;16482;51.046;4.498;2023-08-06T06:30:46;24.60;52.20
29539;DHT22;16482;51.046;4.498;2023-08-06T06:33:19;24.50;52.20
29539;DHT22;16482;51.046;4.498;2023-08-06T06:35:49;24.50;52.10
29539;DHT22;16482;51.046;4.498;2023-08-06T06:38:15;24.60;52.10
29539;DHT22;16482;51.046;4.498;2023-08-06T06:40:43;24.60;52.10
29539;DHT22;16482;51.046;4.498;2023-08-06T06:43:10;24.60;52.10
29539;DHT22;16482;51.046;4.498;2023-08-06T06:45:53;24.60;52.10
29539;DHT22;16482;51.046;4.498;2023-08-06T06:48:19;24.50;51.90
29539;DHT22;16482;51.046;4.498;2023-08-06T06:50:52;24.60;52.20
29539;DHT22;16482;51.046;4.498;2023-08-06T06:53:22;24.60;52.10
29539;DHT22;16482;51.046;4.498;2023-08-06T06:56:02;24.50;51.90
29539;DHT22;16482;51.046;4.498;2023-08-06T06:58:28;24.60;51.90
29539;DHT22;16482;51.046;4.498;2023-08-06T07:00:54;24.50;51.90
29539;DHT22;16482;51.046;4.498;2023-08-06T07:03:23;24.60;51.90
29539;DHT22;16482;51.046;4.498;2023-08-06T07:05:49;24.50;51.80
29539;DHT22;16482;51.046;4.498;2023-08-06T07:08:18;24.50;51.80
29539;DHT22;16482;51.046;4.498;2023-08-06T07:11:04;24.60;51.90
29539;DHT22;16482;51.046;4.498;2023-08-06T07:13:31;24.60;51.70
29539;DHT22;16482;51.046;4.498;2023-08-06T07:15:57;24.50;52.30
29539;DHT22;16482;51.046;4.498;2023-08-06T07:18:32;24.50;51.80
29539;DHT22;16482;51.046;4.498;2023-08-06T07:20:58;24.50;51.80
29539;DHT22;16482;51.046;4.498;2023-08-06T07:23:25;24.60;51.80
29539;DHT22;16482;51.046;4.498;2023-08-06T07:25:51;24.60;51.80
29539;DHT22;16482;51.046;4.498;2023-08-06T07:28:18;24.60;51.70
29539;DHT22;16482;51.046;4.498;2023-08-06T07:30:46;24.60;51.60
29539;DHT22;16482;51.046;4.498;2023-08-06T07:33:18;24.60;51.60
29539;DHT22;16482;51.046;4.498;2023-08-06T07:35:47;24.50;51.60
29539;DHT22;16482;51.046;4.498;2023-08-06T07:38:15;24.60;51.60
29539;DHT22;16482;51.046;4.498;2023-08-06T07:40:42;24.50;51.60
29539;DHT22;16482;51.046;4.498;2023-08-06T07:43:08;24.50;51.60
29539;DHT22;16482;51.046;4.498;2023-08-06T07:45:36;24.50;51.50
29539;DHT22;16482;51.046;4.498;2023-08-06T07:48:03;24.60;51.40
29539;DHT22;16482;51.046;4.498;2023-08-06T07:50:29;24.60;51.40
29539;DHT22;16482;51.046;4.498;2023-08-06T07:52:55;24.60;51.40
29539;DHT22;16482;51.046;4.498;2023-08-06T07:55:21;24.60;51.50
29539;DHT22;16482;51.046;4.498;2023-08-06T07:57:47;24.60;51.30
29539;DHT22;16482;51.046;4.498;2023-08-06T08:00:14;24.60;51.40
29539;DHT22;16482;51.046;4.498;2023-08-06T08:02:42;24.60;51.30
29539;DHT22;16482;51.046;4.498;2023-08-06T08:05:11;24.60;51.30
29539;DHT22;16482;51.046;4.498;2023-08-06T08:07:37;24.60;51.30
29539;DHT22;16482;51.046;4.498;2023-08-06T08:10:04;24.60;51.20
29539;DHT22;16482;51.046;4.498;2023-08-06T08:12:30;24.60;51.10
29539;DHT22;16482;51.046;4.498;2023-08-06T08:14:56;24.60;51.20
29539;DHT22;16482;51.046;4.498;2023-08-06T08:17:22;24.60;51.20
29539;DHT22;16482;51.046;4.498;2023-08-06T08:19:51;24.60;51.20
29539;DHT22;16482;51.046;4.498;2023-08-06T08:22:17;24.70;51.20
29539;DHT22;16482;51.046;4.498;2023-08-06T08:24:54;24.70;51.20
29539;DHT22;16482;51.046;4.498;2023-08-06T08:27:20;24.60;51.10
29539;DHT22;16482;51.046;4.498;2023-08-06T08:29:49;24.60;51.10
29539;DHT22;16482;51.046;4.498;2023-08-06T08:32:16;24.60;51.10
29539;DHT22;16482;51.046;4.498;2023-08-06T08:34:42;24.60;51.20
29539;DHT22;16482;51.046;4.498;2023-08-06T08:37:11;24.60;51.20
29539;DHT22;16482;51.046;4.498;2023-08-06T08:39:39;24.60;51.10
29539;DHT22;16482;51.046;4.498;2023-08-06T08:42:06;24.60;51.10
29539;DHT22;16482;51.046;4.498;2023-08-06T08:44:33;24.60;51.10
29539;DHT22;16482;51.046;4.498;2023-08-06T08:47:11;24.60;51.10
29539;DHT22;16482;51.046;4.498;2023-08-06T08:49:37;24.60;51.20
29539;DHT22;16482;51.046;4.498;2023-08-06T08:52:04;24.60;51.20
29539;DHT22;16482;51.046;4.498;2023-08-06T08:54:34;24.60;51.20
29539;DHT22;16482;51.046;4.498;2023-08-06T08:57:03;24.60;51.20
29539;DHT22;16482;51.046;4.498;2023-08-06T08:59:33;24.60;51.20
29539;DHT22;16482;51.046;4.498;2023-08-06T09:02:02;24.60;51.20
29539;DHT22;16482;51.046;4.498;2023-08-06T09:04:31;24.60;51.20
29539;DHT22;16482;51.046;4.498;2023-08-06T09:06:58;24.60;51.20
29539;DHT22;16482;51.046;4.498;2023-08-06T09:09:35;24.60;51.20
29539;DHT22;16482;51.046;4.498;2023-08-06T09:12:11;24.60;51.10
29539;DHT22;16482;51.046;4.498;2023-08-06T09:14:40;24.70;51.20
29539;DHT22;16482;51.046;4.498;2023-08-06T09:17:07;24.60;51.10
29539;DHT22;16482;51.046;4.498;2023-08-06T09:19:36;24.60;51.20
29539;DHT22;16482;51.046;4.498;2023-08-06T09:22:02;24.70;51.30
29539;DHT22;16482;51.046;4.498;2023-08-06T09:24:28;24.60;51.10
29539;DHT22;16482;51.046;4.498;2023-08-06T09:26:54;24.60;51.30
29539;DHT22;16482;51.046;4.498;2023-08-06T09:29:20;24.60;51.20
29539;DHT22;16482;51.046;4.498;2023-08-06T09:31:48;24.60;51.10
29539;DHT22;16482;51.046;4.498;2023-08-06T09:34:21;24.60;51.10
29539;DHT22;16482;51.046;4.498;2023-08-06T09:36:48;24.60;51.10
29539;DHT22;16482;51.046;4.498;2023-08-06T09:39:15;24.60;51.10
29539;DHT22;16482;51.046;4.498;2023-08-06T09:41:44;24.60;51.20
29539;DHT22;16482;51.046;4.498;2023-08-06T09:44:21;24.60;51.20
29539;DHT22;16482;51.046;4.498;2023-08-06T09:46:53;24.60;51.20
29539;DHT22;16482;51.046;4.498;2023-08-06T09:49:22;24.60;51.90
29539;DHT22;16482;51.046;4.498;2023-08-06T09:51:49;24.60;51.30
29539;DHT22;16482;51.046;4.498;2023-08-06T09:54:17;24.60;51.40
29539;DHT22;16482;51.046;4.498;2023-08-06T09:56:46;24.60;51.40
29539;DHT22;16482;51.046;4.498;2023-08-06T09:59:13;24.60;51.40
29539;DHT22;16482;51.046;4.498;2023-08-06T10:01:41;24.60;51.40
29539;DHT22;16482;51.046;4.498;2023-08-06T10:04:09;24.60;51.50
29539;DHT22;16482;51.046;4.498;2023-08-06T10:06:38;24.60;51.50
29539;DHT22;16482;51.046;4.498;2023-08-06T10:09:07;24.60;51.40
29539;DHT22;16482;51.046;4.498;2023-08-06T10:11:43;24.60;51.50
29539;DHT22;16482;51.046;4.498;2023-08-06T10:14:25;24.60;51.50
29539;DHT22;16482;51.046;4.498;2023-08-06T10:17:02;24.60;51.40
29539;DHT22;16482;51.046;4.498;2023-08-06T10:19:31;24.60;51.40
29539;DHT22;16482;51.046;4.498;2023-08-06T10:22:11;24.60;51.40
29539;DHT22;16482;51.046;4.498;2023-08-06T10:24:56;24.60;51.40
29539;DHT22;16482;51.046;4.498;2023-08-06T10:27:35;24.60;51.50
29539;DHT22;16482;51.046;4.498;2023-08-06T10:30:27;24.60;51.60
29539;DHT22;16482;51.046;4.498;2023-08-06T10:33:03;24.60;51.50
29539;DHT22;16482;51.046;4.498;2023-08-06T10:35:38;24.60;51.70
29539;DHT22;16482;51.046;4.498;2023-08-06T10:38:24;24.60;51.70
29539;DHT22;16482;51.046;4.498;2023-08-06T10:43:34;24.60;51.80
29539;DHT22;16482;51.046;4.498;2023-08-06T10:46:26;24.60;51.70
29539;DHT22;16482;51.046;4.498;2023-08-06T10:48:52;24.60;51.60
29539;DHT22;16482;51.046;4.498;2023-08-06T10:51:18;24.60;51.70
29539;DHT22;16482;51.046;4.498;2023-08-06T10:53:46;24.60;51.70
29539;DHT22;16482;51.046;4.498;2023-08-06T10:56:16;24.60;51.60
29539;DHT22;16482;51.046;4.498;2023-08-06T10:58:57;24.70;51.70
29539;DHT22;16482;51.046;4.498;2023-08-06T11:01:23;24.60;51.60
29539;DHT22;16482;51.046;4.498;2023-08-06T11:03:50;24.60;51.60
29539;DHT22;16482;51.046;4.498;2023-08-06T11:06:19;24.60;51.50
29539;DHT22;16482;51.046;4.498;2023-08-06T11:08:50;24.70;51.50
29539;DHT22;16482;51.046;4.498;2023-08-06T11:11:17;24.70;51.50
29539;DHT22;16482;51.046;4.498;2023-08-06T11:13:47;24.70;51.50
29539;DHT22;16482;51.046;4.498;2023-08-06T11:16:18;24.60;51.40
29539;DHT22;16482;51.046;4.498;2023-08-06T11:18:45;24.70;51.40
29539;DHT22;16482;51.046;4.498;2023-08-06T11:21:14;24.70;51.50
29539;DHT22;16482;51.046;4.498;2023-08-06T11:23:41;24.60;51.40
29539;DHT22;16482;51.046;4.498;2023-08-06T11:26:07;24.60;51.30
29539;DHT22;16482;51.046;4.498;2023-08-06T11:28:33;24.60;51.40
29539;DHT22;16482;51.046;4.498;2023-08-06T11:30:59;24.60;51.40
29539;DHT22;16482;51.046;4.498;2023-08-06T11:33:28;24.60;51.40
29539;DHT22;16482;51.046;4.498;2023-08-06T11:36:04;24.60;51.30
29539;DHT22;16482;51.046;4.498;2023-08-06T11:38:32;24.60;51.30
29539;DHT22;16482;51.046;4.498;2023-08-06T11:41:01;24.60;51.40
29539;DHT22;16482;51.046;4.498;2023-08-06T11:43:30;24.60;51.30
29539;DHT22;16482;51.046;4.498;2023-08-06T11:45:57;24.70;51.30
29539;DHT22;16482;51.046;4.498;2023-08-06T11:48:26;24.60;51.30
29539;DHT22;16482;51.046;4.498;2023-08-06T11:50:54;24.60;51.50
29539;DHT22;16482;51.046;4.498;2023-08-06T11:53:31;24.40;51.80
29539;DHT22;16482;51.046;4.498;2023-08-06T11:55:58;24.40;52.00
29539;DHT22;16482;51.046;4.498;2023-08-06T11:58:24;24.40;52.00
29539;DHT22;16482;51.046;4.498;2023-08-06T12:00:50;24.40;52.30
29539;DHT22;16482;51.046;4.498;2023-08-06T12:03:19;24.50;52.10
29539;DHT22;16482;51.046;4.498;2023-08-06T12:05:48;24.50;51.90
29539;DHT22;16482;51.046;4.498;2023-08-06T12:08:19;24.40;52.20
29539;DHT22;16482;51.046;4.498;2023-08-06T12:10:48;24.30;52.60
29539;DHT22;16482;51.046;4.498;2023-08-06T12:13:23;24.30;52.70
29539;DHT22;16482;51.046;4.498;2023-08-06T12:15:49;24.30;52.70
29539;DHT22;16482;51.046;4.498;2023-08-06T12:18:17;24.30;52.40
29539;DHT22;16482;51.046;4.498;2023-08-06T12:20:43;24.50;52.30
29539;DHT22;16482;51.046;4.498;2023-08-06T12:23:09;24.50;52.50
29539;DHT22;16482;51.046;4.498;2023-08-06T12:25:35;24.40;52.60
29539;DHT22;16482;51.046;4.498;2023-08-06T12:28:01;24.40;52.60
29539;DHT22;16482;51.046;4.498;2023-08-06T12:30:37;24.40;52.50
29539;DHT22;16482;51.046;4.498;2023-08-06T12:33:06;24.40;52.60
29539;DHT22;16482;51.046;4.498;2023-08-06T12:35:35;24.30;52.80
29539;DHT22;16482;51.046;4.498;2023-08-06T12:38:03;24.30;52.90
29539;DHT22;16482;51.046;4.498;2023-08-06T12:40:39;24.40;52.90
29539;DHT22;16482;51.046;4.498;2023-08-06T12:43:05;24.00;53.40
29539;DHT22;16482;51.046;4.498;2023-08-06T12:45:31;24.10;53.40
29539;DHT22;16482;51.046;4.498;2023-08-06T12:47:57;24.20;53.20
29539;DHT22;16482;51.046;4.498;2023-08-06T12:50:23;24.20;53.20
29539;DHT22;16482;51.046;4.498;2023-08-06T12:52:58;24.00;53.30
29539;DHT22;16482;51.046;4.498;2023-08-06T12:55:33;23.80;53.80
29539;DHT22;16482;51.046;4.498;2023-08-06T12:57:59;23.60;54.30
29539;DHT22;16482;51.046;4.498;2023-08-06T13:00:28;23.50;54.60
29539;DHT22;16482;51.046;4.498;2023-08-06T13:03:03;23.50;54.90
29539;DHT22;16482;51.046;4.498;2023-08-06T13:05:29;23.40;54.60
29539;DHT22;16482;51.046;4.498;2023-08-06T13:07:55;23.40;55.00
29539;DHT22;16482;51.046;4.498;2023-08-06T13:10:21;23.50;54.80
29539;DHT22;16482;51.046;4.498;2023-08-06T13:12:47;23.60;54.70
29539;DHT22;16482;51.046;4.498;2023-08-06T13:15:16;23.60;54.60
29539;DHT22;16482;51.046;4.498;2023-08-06T13:17:42;23.60;54.80
29539;DHT22;16482;51.046;4.498;2023-08-06T13:20:08;23.50;54.90
29539;DHT22;16482;51.046;4.498;2023-08-06T13:22:43;23.40;55.10
29539;DHT22;16482;51.046;4.498;2023-08-06T13:25:12;23.40;55.20
29539;DHT22;16482;51.046;4.498;2023-08-06T13:27:40;23.50;54.90
29539;DHT22;16482;51.046;4.498;2023-08-06T13:30:06;23.80;54.40
29539;DHT22;16482;51.046;4.498;2023-08-06T13:32:33;23.90;53.80
29539;DHT22;16482;51.046;4.498;2023-08-06T13:35:06;24.00;53.40
29539;DHT22;16482;51.046;4.498;2023-08-06T13:37:32;24.10;52.90
29539;DHT22;16482;51.046;4.498;2023-08-06T13:39:58;24.20;52.70
29539;DHT22;16482;51.046;4.498;2023-08-06T13:42:27;24.30;52.40
29539;DHT22;16482;51.046;4.498;2023-08-06T13:45:03;24.30;52.20
29539;DHT22;16482;51.046;4.498;2023-08-06T13:47:29;24.40;51.80
29539;DHT22;16482;51.046;4.498;2023-08-06T13:49:55;24.40;51.80
29539;DHT22;16482;51.046;4.498;2023-08-06T13:52:28;24.40;51.50
29539;DHT22;16482;51.046;4.498;2023-08-06T13:55:02;24.50;51.40
29539;DHT22;16482;51.046;4.498;2023-08-06T13:57:29;24.50;51.40
29539;DHT22;16482;51.046;4.498;2023-08-06T14:00:03;24.50;51.40
29539;DHT22;16482;51.046;4.498;2023-08-06T14:02:29;24.50;51.30
29539;DHT22;16482;51.046;4.498;2023-08-06T14:04:58;24.50;51.40
29539;DHT22;16482;51.046;4.498;2023-08-06T14:07:32;24.60;51.30
29539;DHT22;16482;51.046;4.498;2023-08-06T14:10:00;24.60;51.30
29539;DHT22;16482;51.046;4.498;2023-08-06T14:12:29;24.60;51.40
29539;DHT22;16482;51.046;4.498;2023-08-06T14:14:58;24.60;51.30
29539;DHT22;16482;51.046;4.498;2023-08-06T14:17:27;24.60;51.50
29539;DHT22;16482;51.046;4.498;2023-08-06T14:19:53;24.60;51.60
29539;DHT22;16482;51.046;4.498;2023-08-06T14:22:28;24.60;51.60
29539;DHT22;16482;51.046;4.498;2023-08-06T14:24:59;24.60;51.60
29539;DHT22;16482;51.046;4.498;2023-08-06T14:27:28;24.60;51.50
29539;DHT22;16482;51.046;4.498;2023-08-06T14:29:54;24.60;51.50
29539;DHT22;16482;51.046;4.498;2023-08-06T14:32:20;24.60;51.50
29539;DHT22;16482;51.046;4.498;2023-08-06T14:34:47;24.60;51.60
29539;DHT22;16482;51.046;4.498;2023-08-06T14:37:13;24.60;51.40
29539;DHT22;16482;51.046;4.498;2023-08-06T14:39:39;24.60;51.40
29539;DHT22;16482;51.046;4.498;2023-08-06T14:42:07;24.60;51.40
29539;DHT22;16482;51.046;4.498;2023-08-06T14:44:33;24.60;51.50
29539;DHT22;16482;51.046;4.498;2023-08-06T14:46:59;24.60;51.40
29539;DHT22;16482;51.046;4.498;2023-08-06T14:49:28;24.60;51.50
29539;DHT22;16482;51.046;4.498;2023-08-06T14:51:54;24.60;51.50
29539;DHT22;16482;51.046;4.498;2023-08-06T14:54:24;24.60;51.40
29539;DHT22;16482;51.046;4.498;2023-08-06T14:56:50;24.60;51.40
29539;DHT22;16482;51.046;4.498;2023-08-06T14:59:17;24.60;51.50
29539;DHT22;16482;51.046;4.498;2023-08-06T15:01:43;24.60;51.40
29539;DHT22;16482;51.046;4.498;2023-08-06T15:04:11;24.60;51.40
29539;DHT22;16482;51.046;4.498;2023-08-06T15:06:40;24.60;51.50
29539;DHT22;16482;51.046;4.498;2023-08-06T15:09:07;24.60;51.60
29539;DHT22;16482;51.046;4.498;2023-08-06T15:11:33;24.60;51.50
29539;DHT22;16482;51.046;4.498;2023-08-06T15:14:08;24.60;51.50
29539;DHT22;16482;51.046;4.498;2023-08-06T15:16:39;24.60;51.50
29539;DHT22;16482;51.046;4.498;2023-08-06T15:19:07;24.60;51.60
29539;DHT22;16482;51.046;4.498;2023-08-06T15:21:33;24.60;51.60
29539;DHT22;16482;51.046;4.498;2023-08-06T15:24:07;24.60;51.60
29539;DHT22;16482;51.046;4.498;2023-08-06T15:26:33;24.60;51.60
29539;DHT22;16482;51.046;4.498;2023-08-06T15:29:10;24.60;51.70
29539;DHT22;16482;51.046;4.498;2023-08-06T15:31:39;24.60;51.70
29539;DHT22;16482;51.046;4.498;2023-08-06T15:34:08;24.60;51.70
29539;DHT22;16482;51.046;4.498;2023-08-06T15:36:34;24.60;51.70
29539;DHT22;16482;51.046;4.498;2023-08-06T15:39:01;24.60;51.70
29539;DHT22;16482;51.046;4.498;2023-08-06T15:41:29;24.60;51.60
29539;DHT22;16482;51.046;4.498;2023-08-06T15:43:56;24.60;51.60
29539;DHT22;16482;51.046;4.498;2023-08-06T15:46:25;24.60;51.60
29539;DHT22;16482;51.046;4.498;2023-08-06T15:48:51;24.50;51.60
29539;DHT22;16482;51.046;4.498;2023-08-06T15:51:17;24.60;51.60